createdAt,value
2023-02-13T00:00:50.534Z,51.27
2023-02-13T00:01:50.574Z,49.82
2023-02-13T00:02:50.641Z,47.83
2023-02-13T00:03:50.790Z,47.40
2023-02-13T00:04:50.741Z,47.99
2023-02-13T00:05:50.810Z,47.83
2023-02-13T00:06:50.850Z,48.28
2023-02-13T00:07:50.899Z,47.49
2023-02-13T00:08:50.944Z,49.44
2023-02-13T00:09:51.003Z,48.22
2023-02-13T00:10:51.058Z,49.26
2023-02-13T00:11:51.122Z,50.56
2023-02-13T00:12:51.180Z,51.24
2023-02-13T00:13:51.239Z,49.11
2023-02-13T00:14:51.289Z,49.24
2023-02-13T00:15:51.398Z,47.17
2023-02-13T00:16:51.383Z,48.40
2023-02-13T00:17:51.449Z,49.96
2023-02-13T00:18:51.518Z,47.47
2023-02-13T00:19:51.576Z,48.78
2023-02-13T00:20:51.637Z,50.68
2023-02-13T00:21:51.715Z,47.92
2023-02-13T00:22:51.760Z,46.53
2023-02-13T00:23:51.824Z,48.29
2023-02-13T00:24:51.884Z,48.47
2023-02-13T00:25:51.944Z,48.23
2023-02-13T00:26:52.004Z,48.36
2023-02-13T00:27:52.047Z,48.07
2023-02-13T00:28:52.097Z,49.04
2023-02-13T00:29:52.143Z,47.37
2023-02-13T00:30:52.302Z,46.96
2023-02-13T00:31:52.369Z,44.33
2023-02-13T00:32:52.307Z,46.86
2023-02-13T00:33:52.359Z,45.02
2023-02-13T00:34:52.405Z,47.28
2023-02-13T00:35:52.487Z,47.65
2023-02-13T00:36:52.542Z,45.89
2023-02-13T00:37:52.610Z,47.05
2023-02-13T00:38:52.663Z,50.44
2023-02-13T00:39:52.720Z,46.23
2023-02-13T00:40:52.794Z,48.17
2023-02-13T00:41:52.865Z,48.11
2023-02-13T00:42:52.934Z,46.08
2023-02-13T00:43:53.003Z,45.16
2023-02-13T00:44:53.052Z,48.07
2023-02-13T00:45:53.103Z,45.26
2023-02-13T00:46:53.146Z,45.80
2023-02-13T00:47:53.210Z,46.35
2023-02-13T00:48:53.239Z,47.20
2023-02-13T00:49:53.321Z,46.37
2023-02-13T00:50:53.347Z,47.11
2023-02-13T00:51:53.397Z,49.91
2023-02-13T00:52:53.448Z,48.04
2023-02-13T00:53:53.509Z,46.61
2023-02-13T00:54:53.564Z,46.18
2023-02-13T00:55:53.631Z,46.08
2023-02-13T00:56:53.792Z,46.40
2023-02-13T00:57:53.718Z,48.39
2023-02-13T00:58:53.774Z,48.05
2023-02-13T00:59:53.825Z,45.95
2023-02-13T01:00:53.891Z,47.00
2023-02-13T01:01:53.995Z,49.16
2023-02-13T01:02:53.980Z,47.39
2023-02-13T01:03:54.085Z,46.06
2023-02-13T01:04:54.099Z,46.87
2023-02-13T01:05:54.172Z,44.82
2023-02-13T01:06:54.218Z,44.92
2023-02-13T01:07:54.288Z,43.88
2023-02-13T01:08:54.357Z,48.15
2023-02-13T01:09:54.402Z,45.46
2023-02-13T01:10:54.595Z,44.60
2023-02-13T01:11:54.522Z,46.35
2023-02-13T01:12:54.568Z,47.91
2023-02-13T01:13:54.612Z,49.23
2023-02-13T01:14:54.646Z,46.84
2023-02-13T01:15:54.719Z,48.08
2023-02-13T01:16:54.743Z,47.37
2023-02-13T01:17:54.804Z,46.74
2023-02-13T01:18:54.858Z,47.36
2023-02-13T01:19:54.914Z,45.96
2023-02-13T01:20:55.418Z,45.88
2023-02-13T01:21:55.020Z,48.97
2023-02-13T01:22:55.064Z,46.14
2023-02-13T01:23:55.118Z,46.44
2023-02-13T01:24:55.173Z,46.68
2023-02-13T01:25:55.234Z,47.89
2023-02-13T01:26:55.278Z,48.65
2023-02-13T01:27:55.354Z,44.65
2023-02-13T01:28:55.439Z,46.17
2023-02-13T01:29:55.458Z,46.55
2023-02-13T01:30:55.989Z,47.34
2023-02-13T01:31:55.675Z,46.58
2023-02-13T01:32:55.690Z,46.55
2023-02-13T01:33:55.727Z,47.44
2023-02-13T01:34:55.767Z,48.24
2023-02-13T01:35:55.831Z,48.29
2023-02-13T01:36:55.894Z,46.99
2023-02-13T01:37:55.941Z,47.83
2023-02-13T01:38:55.994Z,47.25
2023-02-13T01:39:56.047Z,44.77
2023-02-13T01:40:56.453Z,44.56
2023-02-13T01:41:56.139Z,45.57
2023-02-13T01:42:56.207Z,47.36
2023-02-13T01:43:56.250Z,46.33
2023-02-13T01:44:56.302Z,47.84
2023-02-13T01:45:56.337Z,46.62
2023-02-13T01:46:56.422Z,49.45
2023-02-13T01:47:56.451Z,46.11
2023-02-13T01:48:56.607Z,46.50
2023-02-13T01:49:56.560Z,46.89
2023-02-13T01:50:57.079Z,47.70
2023-02-13T01:51:56.648Z,47.15
2023-02-13T01:52:56.693Z,47.61
2023-02-13T01:53:56.748Z,45.78
2023-02-13T01:54:56.799Z,46.53
2023-02-13T01:55:56.851Z,47.61
2023-02-13T01:56:56.888Z,45.20
2023-02-13T01:57:56.941Z,45.21
2023-02-13T01:58:56.999Z,48.24
2023-02-13T01:59:57.050Z,47.89
2023-02-13T02:00:57.424Z,45.77
2023-02-13T02:01:57.281Z,47.41
2023-02-13T02:02:57.652Z,47.43
2023-02-13T02:03:57.283Z,49.46
2023-02-13T02:04:57.353Z,48.59
2023-02-13T02:05:57.404Z,47.59
2023-02-13T02:06:57.474Z,47.80
2023-02-13T02:07:57.528Z,45.90
2023-02-13T02:08:57.573Z,46.43
2023-02-13T02:09:57.673Z,47.11
2023-02-13T02:10:58.138Z,45.48
2023-02-13T02:11:57.731Z,47.77
2023-02-13T02:12:57.777Z,46.60
2023-02-13T02:13:57.817Z,44.20
2023-02-13T02:14:57.871Z,45.68
2023-02-13T02:15:57.934Z,44.92
2023-02-13T02:16:57.990Z,46.61
2023-02-13T02:17:58.010Z,45.12
2023-02-13T02:18:58.066Z,47.68
2023-02-13T02:19:58.108Z,45.21
2023-02-13T02:20:58.500Z,46.48
2023-02-13T02:21:58.187Z,46.75
2023-02-13T02:22:58.241Z,45.71
2023-02-13T02:23:58.286Z,48.38
2023-02-13T02:24:58.345Z,45.74
2023-02-13T02:25:58.375Z,46.44
2023-02-13T02:26:58.428Z,47.85
2023-02-13T02:27:58.473Z,49.42
2023-02-13T02:28:58.517Z,48.17
2023-02-13T02:29:58.569Z,46.60
2023-02-13T02:30:59.089Z,50.37
2023-02-13T02:31:58.689Z,50.85
2023-02-13T02:32:58.726Z,47.09
2023-02-13T02:33:58.767Z,50.35
2023-02-13T02:34:58.829Z,47.64
2023-02-13T02:35:58.903Z,47.47
2023-02-13T02:36:58.946Z,47.52
2023-02-13T02:37:59.009Z,49.43
2023-02-13T02:38:59.053Z,49.74
2023-02-13T02:39:59.098Z,48.07
2023-02-13T02:40:59.708Z,47.00
2023-02-13T02:41:59.200Z,48.43
2023-02-13T02:42:59.274Z,49.34
2023-02-13T02:43:59.312Z,51.14
2023-02-13T02:44:59.346Z,46.20
2023-02-13T02:45:59.412Z,48.42
2023-02-13T02:46:59.452Z,48.15
2023-02-13T02:47:59.480Z,47.01
2023-02-13T02:48:59.522Z,46.07
2023-02-13T02:49:59.575Z,48.85
2023-02-13T02:50:59.629Z,47.41
2023-02-13T02:51:59.660Z,50.38
2023-02-13T02:52:59.751Z,48.01
2023-02-13T02:53:59.786Z,45.14
2023-02-13T02:54:59.837Z,52.26
2023-02-13T02:55:59.887Z,47.87
2023-02-13T02:56:59.951Z,48.79
2023-02-13T02:57:59.989Z,49.30
2023-02-13T02:59:00.041Z,48.75
2023-02-13T03:00:00.128Z,45.33
2023-02-13T03:01:00.432Z,47.63
2023-02-13T03:02:00.167Z,46.95
2023-02-13T03:03:00.218Z,49.40
2023-02-13T03:04:00.326Z,48.91
2023-02-13T03:05:00.312Z,48.18
2023-02-13T03:06:00.380Z,48.22
2023-02-13T03:07:00.406Z,48.86
2023-02-13T03:08:00.483Z,49.41
2023-02-13T04:32:04.728Z,45.97
2023-02-13T04:33:04.758Z,45.78
2023-02-13T04:34:04.843Z,43.77
2023-02-13T04:35:04.883Z,45.71
2023-02-13T04:36:04.926Z,46.01
2023-02-13T04:37:04.968Z,45.98
2023-02-13T04:38:05.014Z,46.66
2023-02-13T04:39:05.072Z,43.06
2023-02-13T04:40:05.110Z,45.54
2023-02-13T04:41:05.151Z,48.12
2023-02-13T04:42:05.197Z,46.97
2023-02-13T04:43:05.259Z,44.15
2023-02-13T04:44:05.328Z,46.67
2023-02-13T04:45:05.355Z,44.34
2023-02-13T04:46:05.444Z,46.94
2023-02-13T04:47:05.453Z,46.46
2023-02-13T04:48:05.500Z,45.56
2023-02-13T04:49:05.541Z,42.92
2023-02-13T04:50:05.613Z,46.28
2023-02-13T04:51:05.658Z,47.55
2023-02-13T04:52:05.697Z,45.06
2023-02-13T04:53:05.734Z,44.29
2023-02-13T04:54:05.790Z,44.15
2023-02-13T04:55:05.845Z,44.52
2023-02-13T04:56:05.890Z,45.91
2023-02-13T04:57:05.961Z,44.05
2023-02-13T04:58:06.034Z,44.39
2023-02-13T04:59:06.046Z,46.52
2023-02-13T05:00:06.095Z,45.86
2023-02-13T05:01:06.307Z,49.02
2023-02-13T05:02:06.199Z,45.77
2023-02-13T05:03:06.244Z,48.98
2023-02-13T05:04:06.320Z,46.75
2023-02-13T05:05:06.357Z,47.69
2023-02-13T05:06:06.419Z,45.99
2023-02-13T05:07:06.461Z,49.45
2023-02-13T05:08:06.539Z,49.23
2023-02-13T05:09:06.578Z,49.24
2023-02-13T05:10:06.634Z,50.25
2023-02-13T05:11:06.692Z,48.62
2023-02-13T05:12:06.759Z,48.79
2023-02-13T05:13:06.888Z,48.84
2023-02-13T05:14:06.864Z,47.83
2023-02-13T05:15:06.941Z,48.01
2023-02-13T05:16:07.032Z,45.20
2023-02-13T05:17:07.009Z,48.08
2023-02-13T05:18:07.073Z,47.79
2023-02-13T05:19:07.127Z,45.64
2023-02-13T05:20:07.192Z,43.81
2023-02-13T05:21:07.235Z,49.23
2023-02-13T05:22:07.301Z,47.94
2023-02-13T05:23:07.344Z,47.62
2023-02-13T05:24:07.397Z,45.25
2023-02-13T05:25:07.486Z,46.46
2023-02-13T05:26:07.527Z,46.11
2023-02-13T05:27:07.564Z,45.77
2023-02-13T05:28:07.652Z,46.05
2023-02-13T05:29:07.673Z,46.44
2023-02-13T05:30:07.743Z,46.33
2023-02-13T05:31:07.861Z,47.23
2023-02-13T05:32:07.864Z,49.51
2023-02-13T05:33:07.860Z,47.31
2023-02-13T05:34:07.907Z,48.19
2023-02-13T05:35:07.954Z,44.78
2023-02-13T05:36:07.996Z,46.17
2023-02-13T05:37:08.039Z,45.50
2023-02-13T05:38:08.113Z,50.19
2023-02-13T05:39:08.178Z,47.43
2023-02-13T05:40:08.233Z,47.96
2023-02-13T05:41:08.297Z,48.15
2023-02-13T05:42:08.413Z,45.56
2023-02-13T05:43:08.401Z,49.45
2023-02-13T05:44:08.476Z,47.92
2023-02-13T05:45:08.531Z,50.00
2023-02-13T05:46:08.652Z,46.49
2023-02-13T05:47:08.662Z,46.18
2023-02-13T05:48:08.718Z,45.37
2023-02-13T05:49:08.782Z,48.26
2023-02-13T05:50:08.835Z,44.44
2023-02-13T05:51:08.915Z,47.53
2023-02-13T05:52:08.952Z,46.21
2023-02-13T05:53:09.000Z,47.99
2023-02-13T05:54:09.043Z,46.93
2023-02-13T05:55:09.085Z,45.91
2023-02-13T05:56:09.139Z,45.51
2023-02-13T05:57:09.173Z,48.52
2023-02-13T05:58:09.264Z,44.63
2023-02-13T05:59:09.304Z,48.44
2023-02-13T06:00:09.344Z,50.56
2023-02-13T06:01:09.408Z,46.73
2023-02-13T06:02:09.491Z,49.85
2023-02-13T06:03:09.477Z,49.17
2023-02-13T06:04:09.546Z,46.76
2023-02-13T06:05:09.576Z,47.16
2023-02-13T06:06:09.639Z,50.76
2023-02-13T06:07:09.694Z,45.27
2023-02-13T06:08:09.747Z,47.03
2023-02-13T06:09:09.782Z,45.76
2023-02-13T06:10:09.828Z,44.17
2023-02-13T06:11:09.893Z,47.09
2023-02-13T06:12:09.934Z,45.12
2023-02-13T06:13:09.989Z,48.63
2023-02-13T06:14:10.036Z,44.45
2023-02-13T06:15:10.097Z,44.66
2023-02-13T06:16:10.179Z,46.48
2023-02-13T06:17:10.199Z,46.27
2023-02-13T06:18:10.248Z,46.63
2023-02-13T06:19:10.309Z,46.65
2023-02-13T06:20:10.391Z,44.35
2023-02-13T06:21:10.480Z,49.49
2023-02-13T06:22:10.443Z,43.15
2023-02-13T06:23:10.517Z,48.78
2023-02-13T06:24:10.557Z,51.09
2023-02-13T06:25:10.602Z,54.12
2023-02-13T06:26:10.670Z,59.61
2023-02-13T06:27:10.717Z,63.25
2023-02-13T06:28:10.802Z,66.64
2023-02-13T06:29:10.822Z,69.03
2023-02-13T06:30:10.868Z,73.18
2023-02-13T06:31:11.032Z,73.32
2023-02-13T06:32:10.993Z,73.18
2023-02-13T06:33:11.032Z,70.57
2023-02-13T06:34:11.060Z,69.15
2023-02-13T06:35:11.119Z,68.55
2023-02-13T06:36:11.182Z,63.01
2023-02-13T06:37:11.224Z,67.04
2023-02-13T06:38:11.278Z,66.26
2023-02-13T06:39:11.314Z,65.75
2023-02-13T06:40:11.366Z,61.91
2023-02-13T06:41:12.252Z,64.26
2023-02-13T06:42:11.466Z,64.07
2023-02-13T06:43:11.503Z,64.45
2023-02-13T06:44:11.574Z,64.73
2023-02-13T06:45:11.698Z,63.41
2023-02-13T06:46:11.715Z,63.61
2023-02-13T06:47:11.723Z,61.03
2023-02-13T06:48:11.761Z,62.36
2023-02-13T06:49:11.801Z,60.57
2023-02-13T06:50:11.845Z,60.24
2023-02-13T06:51:11.916Z,58.85
2023-02-13T06:52:11.955Z,60.69
2023-02-13T06:53:12.101Z,59.87
2023-02-13T06:54:12.045Z,61.45
2023-02-13T06:55:12.092Z,60.00
2023-02-13T06:56:12.180Z,64.73
2023-02-13T06:57:12.199Z,70.72
2023-02-13T06:58:12.236Z,77.88
2023-02-13T06:59:12.280Z,90.12
2023-02-13T07:00:12.333Z,93.59
2023-02-13T07:01:12.480Z,96.12
2023-02-13T07:02:12.447Z,92.23
2023-02-13T07:03:12.568Z,92.45
2023-02-13T07:04:12.541Z,87.35
2023-02-13T07:05:12.583Z,87.14
2023-02-13T07:06:12.631Z,82.85
2023-02-13T07:07:12.705Z,82.77
2023-02-13T07:08:12.740Z,81.22
2023-02-13T07:09:12.788Z,77.43
2023-02-13T07:10:12.823Z,79.33
2023-02-13T07:11:12.883Z,75.44
2023-02-13T07:12:12.956Z,74.93
2023-02-13T07:13:13.011Z,74.34
2023-02-13T07:14:13.059Z,74.40
2023-02-13T07:15:13.104Z,72.72
2023-02-13T07:16:13.249Z,73.11
2023-02-13T07:17:13.228Z,72.02
2023-02-13T07:18:13.286Z,70.66
2023-02-13T07:19:13.346Z,71.51
2023-02-13T07:20:13.390Z,71.47
2023-02-13T07:21:13.447Z,69.21
2023-02-13T07:22:13.492Z,67.83
2023-02-13T07:23:13.532Z,69.47
2023-02-13T07:24:13.591Z,71.38
2023-02-13T07:25:13.637Z,77.27
2023-02-13T07:26:13.705Z,80.88
2023-02-13T07:27:13.741Z,80.11
2023-02-13T07:28:13.896Z,85.73
2023-02-13T07:29:13.846Z,87.40
2023-02-13T07:30:13.900Z,87.42
2023-02-13T07:31:14.062Z,88.18
2023-02-13T07:32:13.997Z,89.09
2023-02-13T07:33:14.052Z,89.08
2023-02-13T07:34:14.107Z,87.59
2023-02-13T07:35:14.151Z,87.68
2023-02-13T07:36:14.192Z,85.25
2023-02-13T07:37:14.268Z,84.21
2023-02-13T07:38:14.360Z,84.62
2023-02-13T07:39:14.428Z,85.78
2023-02-13T07:40:14.476Z,83.18
2023-02-13T07:41:14.555Z,82.83
2023-02-13T07:42:14.597Z,82.89
2023-02-13T07:43:14.658Z,81.17
2023-02-13T07:44:14.688Z,80.72
2023-02-13T07:45:14.728Z,78.44
2023-02-13T07:46:14.790Z,78.54
2023-02-13T07:47:14.814Z,78.07
2023-02-13T07:48:14.897Z,78.50
2023-02-13T07:49:14.991Z,75.37
2023-02-13T07:50:14.978Z,76.04
2023-02-13T07:51:15.056Z,76.95
2023-02-13T07:52:15.092Z,74.04
2023-02-13T07:53:15.144Z,74.43
2023-02-13T07:54:15.208Z,73.88
2023-02-13T07:55:15.250Z,73.01
2023-02-13T07:56:15.295Z,75.62
2023-02-13T07:57:15.364Z,86.69
2023-02-13T07:58:15.398Z,96.51
2023-02-13T07:59:15.456Z,103.12
2023-02-13T08:00:15.526Z,110.81
2023-02-13T08:01:15.549Z,109.18
2023-02-13T08:02:15.696Z,106.00
2023-02-13T08:03:15.664Z,107.89
2023-02-13T08:04:15.789Z,101.98
2023-02-13T08:05:15.772Z,98.84
2023-02-13T08:06:15.822Z,99.54
2023-02-13T08:07:15.882Z,94.71
2023-02-13T08:08:15.938Z,92.03
2023-02-13T08:09:15.979Z,90.02
2023-02-13T08:10:16.039Z,86.53
2023-02-13T08:11:16.083Z,85.50
2023-02-13T08:12:16.137Z,86.10
2023-02-13T08:13:16.221Z,85.79
2023-02-13T08:14:16.275Z,81.00
2023-02-13T08:15:16.321Z,82.64
2023-02-13T08:16:16.390Z,82.49
2023-02-13T08:17:16.432Z,84.27
2023-02-13T08:18:18.856Z,80.72
2023-02-13T08:19:16.512Z,81.87
2023-02-13T08:20:16.566Z,78.90
2023-02-13T08:21:16.629Z,79.98
2023-02-13T08:22:16.641Z,79.02
2023-02-13T08:23:16.724Z,77.62
2023-02-13T08:24:16.726Z,77.65
2023-02-13T08:25:16.765Z,82.56
2023-02-13T08:26:16.813Z,84.88
2023-02-13T08:27:16.849Z,90.39
2023-02-13T08:28:16.974Z,89.83
2023-02-13T08:29:16.949Z,91.79
2023-02-13T08:30:16.980Z,96.08
2023-02-13T08:31:17.113Z,96.06
2023-02-13T08:32:17.275Z,97.50
2023-02-13T08:33:17.114Z,96.06
2023-02-13T08:34:17.185Z,94.59
2023-02-13T08:35:17.210Z,92.95
2023-02-13T08:36:17.249Z,93.34
2023-02-13T08:37:17.301Z,89.79
2023-02-13T08:38:17.351Z,89.76
2023-02-13T08:39:17.411Z,91.40
2023-02-13T08:40:17.432Z,89.32
2023-02-13T08:42:17.524Z,88.42
2023-02-13T08:43:17.570Z,87.18
2023-02-13T08:44:17.985Z,88.92
2023-02-13T08:45:17.660Z,87.49
2023-02-13T08:46:17.749Z,89.07
2023-02-13T08:47:17.740Z,85.86
2023-02-13T08:48:17.788Z,83.68
2023-02-13T08:49:17.834Z,87.46
2023-02-13T08:50:17.866Z,82.39
2023-02-13T08:51:17.921Z,84.86
2023-02-13T08:52:17.956Z,83.01
2023-02-13T08:53:17.992Z,81.29
2023-02-13T08:54:18.018Z,82.25
2023-02-13T08:55:18.070Z,82.60
2023-02-13T08:56:18.130Z,87.24
2023-02-13T08:57:18.156Z,94.60
2023-02-13T08:58:18.207Z,98.18
2023-02-13T08:59:18.231Z,101.46
2023-02-13T09:00:18.275Z,103.74
2023-02-13T09:01:18.388Z,104.89
2023-02-13T09:02:18.340Z,104.09
2023-02-13T09:03:18.505Z,99.87
2023-02-13T09:04:18.418Z,98.65
2023-02-13T09:05:18.465Z,97.32
2023-02-13T09:06:18.505Z,94.81
2023-02-13T09:07:18.540Z,95.77
2023-02-13T09:08:19.027Z,90.18
2023-02-13T09:09:18.638Z,91.63
2023-02-13T09:10:18.667Z,90.97
2023-02-13T09:11:18.695Z,88.22
2023-02-13T09:12:18.738Z,87.90
2023-02-13T09:13:18.778Z,87.13
2023-02-13T09:14:18.821Z,86.27
2023-02-13T09:15:18.848Z,87.34
2023-02-13T09:16:18.927Z,82.69
2023-02-13T09:17:18.922Z,84.24
2023-02-13T09:18:18.972Z,84.37
2023-02-13T09:19:19.011Z,83.27
2023-02-13T09:20:19.049Z,84.00
2023-02-13T09:21:19.084Z,81.74
2023-02-13T09:22:19.118Z,80.89
2023-02-13T09:23:19.163Z,78.58
2023-02-13T09:24:19.217Z,81.36
2023-02-13T09:25:19.236Z,81.61
2023-02-13T09:26:20.689Z,83.59
2023-02-13T09:27:19.330Z,87.73
2023-02-13T09:28:19.405Z,89.96
2023-02-13T09:29:19.421Z,91.36
2023-02-13T09:30:19.441Z,92.27
2023-02-13T09:31:19.612Z,89.20
2023-02-13T09:32:19.528Z,88.60
2023-02-13T09:33:19.554Z,89.15
2023-02-13T09:34:19.614Z,87.35
2023-02-13T09:35:19.630Z,87.73
2023-02-13T09:36:19.663Z,86.33
2023-02-13T09:37:19.688Z,87.21
2023-02-13T09:38:19.748Z,83.63
2023-02-13T09:39:19.775Z,83.63
2023-02-13T09:40:19.820Z,80.75
2023-02-13T09:41:19.863Z,82.59
2023-02-13T09:42:19.884Z,79.62
2023-02-13T09:43:19.916Z,79.23
2023-02-13T09:44:19.958Z,80.00
2023-02-13T09:45:20.002Z,78.99
2023-02-13T09:46:20.068Z,76.82
2023-02-13T09:47:20.078Z,78.56
2023-02-13T09:48:20.109Z,75.35
2023-02-13T09:49:20.152Z,75.97
2023-02-13T09:50:20.186Z,77.09
2023-02-13T09:51:20.217Z,76.91
2023-02-13T09:52:20.245Z,78.17
2023-02-13T09:53:20.292Z,74.17
2023-02-13T09:54:20.342Z,75.06
2023-02-13T09:55:20.365Z,73.33
2023-02-13T09:56:20.401Z,74.19
2023-02-13T09:57:20.446Z,77.31
2023-02-13T09:58:20.464Z,90.99
2023-02-13T09:59:20.505Z,99.33
2023-02-13T10:00:20.576Z,103.23
2023-02-13T10:01:20.636Z,101.56
2023-02-13T10:02:20.604Z,97.81
2023-02-13T10:03:20.644Z,95.77
2023-02-13T10:04:20.668Z,94.20
2023-02-13T10:05:20.857Z,92.17
2023-02-13T10:06:20.737Z,88.64
2023-02-13T10:07:20.776Z,89.96
2023-02-13T10:08:20.821Z,88.07
2023-02-13T10:09:20.838Z,81.06
2023-02-13T10:10:20.993Z,80.73
2023-02-13T10:11:20.912Z,82.00
2023-02-13T10:12:20.948Z,78.89
2023-02-13T10:13:22.095Z,78.54
2023-02-13T10:14:21.007Z,79.38
2023-02-13T10:15:21.077Z,76.71
2023-02-13T10:16:21.177Z,74.33
2023-02-13T10:17:21.137Z,77.16
2023-02-13T10:18:21.147Z,75.89
2023-02-13T10:19:21.181Z,74.29
2023-02-13T10:20:21.224Z,74.24
2023-02-13T10:21:21.260Z,74.00
2023-02-13T10:22:21.283Z,76.34
2023-02-13T10:23:21.332Z,71.63
2023-02-13T10:24:21.360Z,74.01
2023-02-13T10:25:21.409Z,71.36
2023-02-13T10:26:21.451Z,76.78
2023-02-13T10:27:21.479Z,78.46
2023-02-13T10:28:21.534Z,78.47
2023-02-13T10:29:21.562Z,81.09
2023-02-13T10:30:21.597Z,80.39
2023-02-13T10:31:21.719Z,81.70
2023-02-13T10:32:21.780Z,83.08
2023-02-13T10:33:21.692Z,81.75
2023-02-13T10:34:21.729Z,79.19
2023-02-13T10:35:21.769Z,78.69
2023-02-13T10:36:21.806Z,79.16
2023-02-13T10:37:21.905Z,80.05
2023-02-13T10:38:21.879Z,75.94
2023-02-13T10:39:21.914Z,76.94
2023-02-13T10:40:21.948Z,74.21
2023-02-13T10:41:21.999Z,72.88
2023-02-13T10:42:22.023Z,74.88
2023-02-13T10:43:22.060Z,74.92
2023-02-13T10:44:22.102Z,74.38
2023-02-13T10:45:22.189Z,74.66
2023-02-13T10:46:22.225Z,72.06
2023-02-13T10:47:22.247Z,72.94
2023-02-13T10:48:22.263Z,72.22
2023-02-13T10:49:22.296Z,69.49
2023-02-13T10:50:22.339Z,70.56
2023-02-13T10:51:22.384Z,68.91
2023-02-13T10:52:22.447Z,70.85
2023-02-13T10:53:22.496Z,69.23
2023-02-13T10:54:22.569Z,66.62
2023-02-13T10:55:22.628Z,67.96
2023-02-13T10:56:22.686Z,66.46
2023-02-13T10:57:22.755Z,70.23
2023-02-13T10:58:22.827Z,79.12
2023-02-13T10:59:22.888Z,88.13
2023-02-13T11:00:22.933Z,88.10
2023-02-13T11:01:23.043Z,89.38
2023-02-13T11:02:23.057Z,89.34
2023-02-13T11:03:23.099Z,85.94
2023-02-13T11:04:23.241Z,85.37
2023-02-13T11:38:25.223Z,76.99
2023-02-13T11:40:25.215Z,77.13
2023-02-13T11:41:25.406Z,74.59
2023-02-13T11:42:25.353Z,76.75
2023-02-13T11:43:25.453Z,77.28
2023-02-13T11:44:25.530Z,76.44
2023-02-13T11:45:25.632Z,73.19
2023-02-13T11:46:25.754Z,75.84
2023-02-13T11:47:25.737Z,74.15
2023-02-13T11:48:25.814Z,71.69
2023-02-13T11:49:25.888Z,73.28
2023-02-13T11:50:25.963Z,72.84
2023-02-13T11:51:26.023Z,73.43
2023-02-13T11:52:26.101Z,75.22
2023-02-13T11:53:26.174Z,72.69
2023-02-13T11:54:26.258Z,76.35
2023-02-13T11:55:26.328Z,73.02
2023-02-13T11:56:26.394Z,73.65
2023-02-13T11:57:26.452Z,73.82
2023-02-13T11:58:26.536Z,73.94
2023-02-13T11:59:26.573Z,78.43
2023-02-13T12:00:27.381Z,89.39
2023-02-13T12:01:26.733Z,96.36
2023-02-13T12:02:26.902Z,97.88
2023-02-13T12:03:26.988Z,93.97
2023-02-13T12:04:26.968Z,93.87
2023-02-13T12:05:27.060Z,95.65
2023-02-13T12:06:27.116Z,95.28
2023-02-13T12:07:27.207Z,91.37
2023-02-13T12:08:27.250Z,92.38
2023-02-13T12:09:27.325Z,95.13
2023-02-13T12:10:27.391Z,94.74
2023-02-13T12:11:27.439Z,88.56
2023-02-13T12:12:27.505Z,90.95
2023-02-13T12:13:27.611Z,91.63
2023-02-13T12:14:27.650Z,89.87
2023-02-13T12:15:27.738Z,89.66
2023-02-13T12:16:27.884Z,87.35
2023-02-13T12:17:32.363Z,88.23
2023-02-13T12:18:27.939Z,88.35
2023-02-13T12:19:27.983Z,88.47
2023-02-13T12:20:28.021Z,87.08
2023-02-13T12:21:28.063Z,85.83
2023-02-13T12:22:28.105Z,87.94
2023-02-13T12:23:28.129Z,88.48
2023-02-13T12:24:28.176Z,86.86
2023-02-13T12:25:28.218Z,85.57
2023-02-13T12:26:28.251Z,84.36
2023-02-13T12:27:28.287Z,85.90
2023-02-13T12:28:28.389Z,85.84
2023-02-13T12:29:28.432Z,86.68
2023-02-13T12:30:28.457Z,86.71
2023-02-13T12:31:28.514Z,88.70
2023-02-13T12:32:28.469Z,87.65
2023-02-13T12:33:28.543Z,85.04
2023-02-13T12:34:28.643Z,87.54
2023-02-13T12:35:28.711Z,87.85
2023-02-13T12:36:28.799Z,83.77
2023-02-13T12:37:28.895Z,81.79
2023-02-13T12:38:28.994Z,79.33
2023-02-13T12:39:29.089Z,78.48
2023-02-13T12:40:29.184Z,82.34
2023-02-13T12:41:29.258Z,78.93
2023-02-13T12:42:29.369Z,78.88
2023-02-13T12:43:29.408Z,78.52
2023-02-13T12:44:29.486Z,78.38
2023-02-13T12:45:29.665Z,75.42
2023-02-13T12:46:29.662Z,76.83
2023-02-13T12:47:29.747Z,77.81
2023-02-13T12:48:29.798Z,77.34
2023-02-13T12:49:29.917Z,76.57
2023-02-13T12:50:29.978Z,78.83
2023-02-13T12:51:30.107Z,77.09
2023-02-13T12:52:30.169Z,75.53
2023-02-13T12:53:30.511Z,74.75
2023-02-13T12:54:30.352Z,76.21
2023-02-13T12:55:30.431Z,75.70
2023-02-13T12:56:30.521Z,77.68
2023-02-13T12:57:30.630Z,77.08
2023-02-13T12:58:30.710Z,82.56
2023-02-13T12:59:30.786Z,83.57
2023-02-13T13:00:30.873Z,94.11
2023-02-13T13:01:31.133Z,99.71
2023-02-13T13:02:31.144Z,96.97
2023-02-13T13:03:31.174Z,91.26
2023-02-13T13:04:31.266Z,94.94
2023-02-13T13:05:31.336Z,89.98
2023-02-13T13:06:31.413Z,89.43
2023-02-13T13:07:31.491Z,91.80
2023-02-13T13:08:31.585Z,85.28
2023-02-13T13:09:31.650Z,86.96
2023-02-13T13:10:31.721Z,84.34
2023-02-13T13:11:31.761Z,84.29
2023-02-13T13:12:31.834Z,83.94
2023-02-13T13:13:31.940Z,81.19
2023-02-13T13:14:32.003Z,81.92
2023-02-13T13:15:32.082Z,80.39
2023-02-13T13:16:32.189Z,82.84
2023-02-13T13:17:32.241Z,80.22
2023-02-13T13:18:32.319Z,79.98
2023-02-13T13:19:32.408Z,81.24
2023-02-13T13:20:32.481Z,79.50
2023-02-13T13:21:32.566Z,79.55
2023-02-13T13:22:32.645Z,78.51
2023-02-13T13:23:32.767Z,76.49
2023-02-13T13:24:32.827Z,79.76
2023-02-13T13:25:32.920Z,77.39
2023-02-13T13:26:32.994Z,77.01
2023-02-13T13:27:33.069Z,79.41
2023-02-13T13:28:33.184Z,76.84
2023-02-13T13:29:33.248Z,77.03
2023-02-13T13:30:35.661Z,78.65
2023-02-13T13:31:33.683Z,73.47
2023-02-13T13:32:33.671Z,77.00
2023-02-13T13:33:33.789Z,76.62
2023-02-13T13:34:33.876Z,77.66
2023-02-13T13:35:33.989Z,75.45
2023-02-13T13:36:34.069Z,78.19
2023-02-13T13:37:34.166Z,74.46
2023-02-13T13:38:34.259Z,73.43
2023-02-13T13:39:34.346Z,76.23
2023-02-13T13:40:34.431Z,79.48
2023-02-13T13:41:34.507Z,77.76
2023-02-13T13:42:34.607Z,76.01
2023-02-13T13:43:34.694Z,74.23
2023-02-13T13:44:34.817Z,77.83
2023-02-13T13:45:34.877Z,74.03
2023-02-13T13:46:34.949Z,75.44
2023-02-13T13:47:35.032Z,74.60
2023-02-13T13:48:35.091Z,76.42
2023-02-13T13:49:35.166Z,77.19
2023-02-13T13:50:35.233Z,77.39
2023-02-13T13:51:35.295Z,80.78
2023-02-13T13:52:35.377Z,78.69
2023-02-13T13:53:35.450Z,78.00
2023-02-13T13:54:35.556Z,77.00
2023-02-13T13:55:35.632Z,74.91
2023-02-13T13:56:35.729Z,76.35
2023-02-13T13:57:35.832Z,74.97
2023-02-13T13:58:35.935Z,76.63
2023-02-13T13:59:36.041Z,76.69
2023-02-13T14:00:36.157Z,75.84
2023-02-13T14:01:36.325Z,76.99
2023-02-13T14:02:36.367Z,79.38
2023-02-13T14:03:36.479Z,76.17
2023-02-13T14:04:36.580Z,78.98
2023-02-13T14:05:36.675Z,78.62
2023-02-13T14:06:36.763Z,78.49
2023-02-13T14:07:36.884Z,76.59
2023-02-13T14:08:36.972Z,78.94
2023-02-13T14:09:37.079Z,77.01
2023-02-13T14:10:37.213Z,78.15
2023-02-13T14:11:37.265Z,77.97
2023-02-13T14:12:37.376Z,76.84
2023-02-13T14:13:37.481Z,78.19
2023-02-13T14:14:37.594Z,79.35
2023-02-13T14:15:37.742Z,80.10
2023-02-13T14:19:38.067Z,80.01
2023-02-13T16:14:45.153Z,76.92
2023-02-13T16:15:45.198Z,78.79
2023-02-13T16:16:45.249Z,76.84
2023-02-13T16:17:45.351Z,76.79
2023-02-13T16:18:45.332Z,76.22
2023-02-13T16:19:45.377Z,77.02
2023-02-13T16:20:45.450Z,76.37
2023-02-13T16:21:45.496Z,76.41
2023-02-13T16:22:45.572Z,77.42
2023-02-13T16:23:45.637Z,76.61
2023-02-13T16:24:45.701Z,78.78
2023-02-13T16:25:45.722Z,80.15
2023-02-13T16:26:45.785Z,76.51
2023-02-13T16:27:45.831Z,78.16
2023-02-13T16:28:45.890Z,73.44
2023-02-13T16:29:46.062Z,76.21
2023-02-13T16:30:46.059Z,74.46
2023-02-13T16:31:46.053Z,77.52
2023-02-13T19:19:55.162Z,65.65
2023-02-13T19:20:55.220Z,68.02
2023-02-13T19:21:55.276Z,66.28
2023-02-13T19:22:55.351Z,65.20
2023-02-13T19:23:55.397Z,70.99
2023-02-13T19:24:55.466Z,66.84
2023-02-13T19:25:55.507Z,64.84
2023-02-13T19:26:55.554Z,66.26
2023-02-13T19:27:55.603Z,65.62
2023-02-13T19:28:55.670Z,65.16
2023-02-13T19:29:55.768Z,65.96
2023-02-13T19:30:55.900Z,65.68
2023-02-13T19:31:55.811Z,68.00
2023-02-13T19:32:55.859Z,69.96
2023-02-13T19:33:55.934Z,66.24
2023-02-13T19:34:55.969Z,65.18
2023-02-13T19:35:56.020Z,68.92